CheckWX is a tool to help pilots better visualize weather data.  It is not intended as a substitute for an official pre-flight weather briefing.

14:45:23 UTC

KSPS METAR
Sheppard AFB / Wichita Falls Municipal Airport
Wichita Falls, Texas, USA
Current

53 mins ago

KSPS 221352Z 15009KT 10SM BKN015 18/17 A2998 RMK AO2 SLP142 T01830172
Observed
Apr-22 @ 13:52 UTC
Wind
  • 150° at 9 KTS
Visibility
10 SM
Flight Rules
MVFR
Cloud Levels
  • Broken at 1,500' AGL
Temperature
18°C / 64°F
Dewpoint
17°C / 63°F
Humidity
94%
Altimeter
29.98" Hg
Pressure
1015.22 hPa
Previous

2 hours ago

KSPS 221252Z 00000KT 10SM BKN015 BKN250 17/16 A2997 RMK AO2 SLP138 T01670161
Observed
Apr-22 @ 12:52 UTC
Visibility
10 SM
Flight Rules
MVFR
Cloud Levels
  • Broken at 1,500' AGL
  • Broken at 25,000' AGL
Temperature
17°C / 63°F
Dewpoint
16°C / 61°F
Humidity
94%
Altimeter
29.97" Hg
Pressure
1014.92 hPa
Previous

3 hours ago

KSPS 221152Z 14008KT 10SM FEW015 SCT250 16/15 A2992 RMK AO2 SLP121 T01560150 10211 20156 53017
Observed
Apr-22 @ 11:52 UTC
Wind
  • 140° at 8 KTS
Visibility
10 SM
Flight Rules
VFR
Cloud Levels
  • Few at 1,500' AGL
  • Scattered at 25,000' AGL
Temperature
16°C / 61°F
Dewpoint
15°C / 59°F
Humidity
94%
Altimeter
29.92" Hg
Pressure
1013.22 hPa